Aeroporto :
LOGIN :

Iscrizione | Disclaimer

   EN    FR    IT 

 










Sommario :    VFR   VFR Marginale   IFR   IFR Intensivo   IFR Molto Intensivo
Visibilità : 
Base nubi : 
>= 8 km
>= 3000ft
5 / 8 km
1000 / 3000 ft
1500m / 5 km
500 / 1000 ft
800 / 1500m
200 / 500 ft
< 800m
< 200 ft
Simboli :   Temporali  Nebbia  Neve Forte  Precipitazioni Forti  Vento > 20 kt
SIGMETs :   Varie  Temporali  Ghiacco  Turbolenza  Onda orograficha  Ceneri Vulcaniche






- Altitudine del aeroporto : 598 ft
- Codice IATA : BQH


EGKB - Biggin Hill

ULTIMO METAR :
  • 281250Z 31004KT 250V350 9999 SCT020 06/02 Q1010

METARs OBSOLETI :
  • 281220Z 29005KT 230V340 9999 FEW015 SCT025 06/02 Q1010
  • 281150Z 34005KT 9999 SCT018 05/02 Q1010
  • 281120Z 32006KT 290V350 9999 FEW013 05/03 Q1010
  • 281050Z 32004KT 280V350 9999 FEW010 04/03 Q1010
  • 281020Z 32005KT 9999 FEW005 04/03 Q1010
  • 280950Z 33005KT 9999 FEW005 04/03 Q1010
  • 280920Z 33004KT 9999 FEW005 03/02 Q1010
  • 280850Z 33004KT 9999 FEW005 03/02 Q1010
  • 280820Z 34005KT 9999 FEW005 02/02 Q1010

TAF TAF EGKB
Valido dal 28 a 12 ore il 28 a 21 ore UTC


281055Z 2812/2821 30004KT 9999 FEW015



MetMap, La meteo Aeronautica in un colpo d'occhio ! - Copyright ORBIFLY Dicembre 2007 - Disclaimer

ORBIFLY MET'MAP TEAM :

Programmazione e sviluppo : Alexandra Zaïnal
Concezione : Baudouin d'Aumeries
Supporto tecnico e logistico : Manuel Goepfert
Aiuto : Marc-Olivier Méhu
Aiuto per la traduzione : Arnaldo La Scala




FONTI E CREDITI :

   NOAA